Time;durP1;ratioP1;P1;durP2;ratioP2;P2;SDS_P1;SDS_P2;PMS_P1;PMS_P2;Temp;Humidity;BMP_temperature;BMP_pressure;BME280_temperature;BME280_humidity;BME280_pressure;Samples;Min_cycle;Max_cycle;Signal;HPM_P1;HPM_P2
2021/11/03 00:00:37;;;;;;;28.0;22.8;;;;;;;5.1;85.3;99860;;;;
2021/11/03 00:10:41;;;;;;;26.5;22.0;;;;;;;4.9;85.7;99850;;;;
2021/11/03 00:12:37;;;;;;;26.5;22.0;;;;;;;5.0;85.4;99850;;;;
2021/11/03 00:16:37;;;;;;;26.5;22.0;;;;;;;4.9;85.2;99850;;;;
2021/11/03 00:18:37;;;;;;;26.5;22.0;;;;;;;5.0;85.0;99860;;;;
2021/11/03 00:22:37;;;;;;;26.5;22.0;;;;;;;4.9;84.9;99850;;;;
2021/11/03 00:24:37;;;;;;;26.5;22.0;;;;;;;4.8;85.7;99850;;;;
2021/11/03 00:28:37;;;;;;;23.0;20.1;;;;;;;4.9;85.0;99850;;;;
2021/11/03 00:30:37;;;;;;;23.0;20.1;;;;;;;5.0;84.5;99850;;;;
2021/11/03 00:32:37;;;;;;;23.0;20.1;;;;;;;4.9;84.8;99850;;;;
2021/11/03 00:38:37;;;;;;;23.0;20.1;;;;;;;4.8;84.6;99850;;;;
2021/11/03 00:40:37;;;;;;;23.0;20.1;;;;;;;4.9;84.4;99850;;;;
2021/11/03 00:44:37;;;;;;;23.0;20.1;;;;;;;4.8;84.1;99850;;;;
2021/11/03 00:46:37;;;;;;;23.0;20.1;;;;;;;4.7;84.5;99840;;;;
2021/11/03 00:52:37;;;;;;;24.7;20.5;;;;;;;4.5;84.7;99840;;;;
2021/11/03 00:56:37;;;;;;;24.7;20.5;;;;;;;4.6;85.0;99850;;;;
2021/11/03 00:58:37;;;;;;;24.7;20.5;;;;;;;4.5;85.0;99850;;;;
2021/11/03 01:00:37;;;;;;;24.7;20.5;;;;;;;4.6;84.7;99850;;;;
2021/11/03 01:04:37;;;;;;;24.7;20.5;;;;;;;4.5;84.9;99850;;;;
2021/11/03 01:06:38;;;;;;;24.7;20.5;;;;;;;4.6;84.8;99850;;;;
2021/11/03 01:08:37;;;;;;;27.8;21.5;;;;;;;4.5;84.5;99850;;;;
2021/11/03 01:10:37;;;;;;;27.8;21.5;;;;;;;4.4;84.7;99850;;;;
2021/11/03 01:14:37;;;;;;;27.8;21.5;;;;;;;4.5;85.0;99840;;;;
2021/11/03 01:20:37;;;;;;;27.8;21.5;;;;;;;4.4;84.9;99840;;;;
2021/11/03 01:26:37;;;;;;;27.8;21.5;;;;;;;4.3;85.2;99840;;;;
2021/11/03 01:28:37;;;;;;;25.1;20.7;;;;;;;4.4;85.4;99830;;;;
2021/11/03 01:32:37;;;;;;;25.1;20.7;;;;;;;4.3;85.5;99830;;;;
2021/11/03 01:34:37;;;;;;;25.1;20.7;;;;;;;4.4;84.9;99830;;;;
2021/11/03 01:36:37;;;;;;;25.1;20.7;;;;;;;4.3;84.8;99830;;;;
2021/11/03 01:38:37;;;;;;;25.1;20.7;;;;;;;4.4;84.6;99830;;;;
2021/11/03 01:44:37;;;;;;;25.1;20.7;;;;;;;4.3;84.4;99830;;;;
2021/11/03 01:48:37;;;;;;;23.0;20.0;;;;;;;4.1;85.2;99820;;;;
2021/11/03 01:50:37;;;;;;;23.0;20.0;;;;;;;4.2;84.9;99820;;;;
2021/11/03 01:52:37;;;;;;;23.0;20.0;;;;;;;4.3;84.8;99830;;;;
2021/11/03 01:54:40;;;;;;;23.0;20.0;;;;;;;4.2;84.6;99830;;;;
2021/11/03 02:10:37;;;;;;;22.9;20.5;;;;;;;4.1;84.1;99820;;;;
2021/11/03 02:12:37;;;;;;;22.9;20.5;;;;;;;4.0;84.6;99820;;;;
2021/11/03 02:14:37;;;;;;;22.9;20.5;;;;;;;4.1;85.1;99810;;;;
2021/11/03 02:16:37;;;;;;;22.9;20.5;;;;;;;4.0;85.1;99810;;;;
2021/11/03 02:20:37;;;;;;;22.9;20.5;;;;;;;3.9;85.7;99810;;;;
2021/11/03 02:26:37;;;;;;;23.1;20.5;;;;;;;4.0;85.1;99810;;;;
2021/11/03 02:36:37;;;;;;;23.1;20.5;;;;;;;3.9;85.1;99820;;;;
2021/11/03 02:38:37;;;;;;;23.1;20.5;;;;;;;4.0;85.5;99810;;;;
2021/11/03 02:40:37;;;;;;;23.1;20.5;;;;;;;3.9;85.7;99810;;;;
2021/11/03 02:42:38;;;;;;;23.1;20.5;;;;;;;4.0;85.7;99810;;;;
2021/11/03 02:54:37;;;;;;;23.5;21.0;;;;;;;3.9;85.6;99800;;;;
2021/11/03 02:56:37;;;;;;;23.5;21.0;;;;;;;4.0;85.3;99800;;;;
2021/11/03 02:58:37;;;;;;;23.5;21.0;;;;;;;3.9;85.9;99800;;;;
2021/11/03 03:00:37;;;;;;;23.5;21.0;;;;;;;4.0;85.4;99800;;;;
2021/11/03 03:04:37;;;;;;;23.5;21.0;;;;;;;4.1;84.8;99800;;;;
2021/11/03 03:06:37;;;;;;;21.9;19.6;;;;;;;4.0;85.1;99810;;;;
2021/11/03 03:08:37;;;;;;;21.9;19.6;;;;;;;3.9;85.3;99810;;;;
2021/11/03 03:10:37;;;;;;;21.9;19.6;;;;;;;4.0;85.4;99810;;;;
2021/11/03 03:12:37;;;;;;;21.9;19.6;;;;;;;3.9;85.1;99800;;;;
2021/11/03 03:24:37;;;;;;;21.9;19.6;;;;;;;3.8;85.7;99820;;;;
2021/11/03 03:26:37;;;;;;;24.8;20.8;;;;;;;3.9;85.3;99820;;;;
2021/11/03 03:32:37;;;;;;;24.8;20.8;;;;;;;3.8;85.2;99820;;;;
2021/11/03 03:46:37;;;;;;;23.2;20.7;;;;;;;3.9;84.7;99820;;;;
2021/11/03 03:48:37;;;;;;;23.2;20.7;;;;;;;3.8;85.1;99820;;;;
2021/11/03 03:50:37;;;;;;;23.2;20.7;;;;;;;3.7;85.3;99820;;;;
2021/11/03 03:54:37;;;;;;;23.2;20.7;;;;;;;3.8;85.4;99820;;;;
2021/11/03 04:00:37;;;;;;;23.2;20.7;;;;;;;3.7;85.7;99820;;;;
2021/11/03 04:04:37;;;;;;;23.2;20.7;;;;;;;3.8;85.2;99830;;;;
2021/11/03 04:16:37;;;;;;;22.3;19.9;;;;;;;3.7;84.6;99830;;;;
2021/11/03 04:22:37;;;;;;;22.3;19.9;;;;;;;3.6;84.6;99840;;;;
2021/11/03 04:26:37;;;;;;;21.8;19.5;;;;;;;3.7;84.9;99850;;;;
2021/11/03 04:34:37;;;;;;;21.8;19.5;;;;;;;3.6;84.4;99850;;;;
2021/11/03 04:36:37;;;;;;;21.8;19.5;;;;;;;3.7;84.4;99850;;;;
2021/11/03 04:42:37;;;;;;;21.8;19.5;;;;;;;3.6;84.6;99860;;;;
2021/11/03 04:44:37;;;;;;;21.8;19.5;;;;;;;3.5;84.9;99870;;;;
2021/11/03 04:46:37;;;;;;;31.2;18.6;;;;;;;3.6;84.8;99860;;;;
2021/11/03 04:48:37;;;;;;;31.2;18.6;;;;;;;3.5;84.6;99860;;;;
2021/11/03 04:50:37;;;;;;;31.2;18.6;;;;;;;3.4;84.6;99860;;;;
2021/11/03 04:52:37;;;;;;;31.2;18.6;;;;;;;3.5;84.8;99860;;;;
2021/11/03 04:58:37;;;;;;;31.2;18.6;;;;;;;3.4;84.5;99860;;;;
2021/11/03 05:00:38;;;;;;;31.2;18.6;;;;;;;3.3;85.0;99860;;;;
2021/11/03 05:02:37;;;;;;;31.2;18.6;;;;;;;3.5;84.8;99860;;;;
2021/11/03 05:08:37;;;;;;;24.9;17.7;;;;;;;3.4;84.9;99860;;;;
2021/11/03 05:10:37;;;;;;;24.9;17.7;;;;;;;3.3;85.1;99860;;;;
2021/11/03 05:20:37;;;;;;;24.9;17.7;;;;;;;3.4;84.7;99870;;;;
2021/11/03 05:24:37;;;;;;;24.9;17.7;;;;;;;3.2;84.6;99870;;;;
2021/11/03 05:26:37;;;;;;;46.5;18.4;;;;;;;3.1;84.9;99870;;;;
2021/11/03 05:30:37;;;;;;;46.5;18.4;;;;;;;3.3;85.1;99880;;;;
2021/11/03 05:32:37;;;;;;;46.5;18.4;;;;;;;3.2;85.1;99880;;;;
2021/11/03 05:34:37;;;;;;;46.5;18.4;;;;;;;3.1;85.4;99870;;;;
2021/11/03 05:36:37;;;;;;;46.5;18.4;;;;;;;3.0;85.5;99870;;;;
2021/11/03 05:38:38;;;;;;;46.5;18.4;;;;;;;2.9;86.1;99870;;;;
2021/11/03 05:46:37;;;;;;;23.5;19.5;;;;;;;3.0;86.3;99870;;;;
2021/11/03 06:00:37;;;;;;;23.5;19.5;;;;;;;3.2;85.8;99860;;;;
2021/11/03 06:02:38;;;;;;;23.5;19.5;;;;;;;3.0;85.9;99860;;;;
2021/11/03 06:04:37;;;;;;;23.5;19.5;;;;;;;3.1;86.3;99860;;;;
2021/11/03 06:10:37;;;;;;;21.4;19.1;;;;;;;3.2;85.8;99860;;;;
2021/11/03 06:14:37;;;;;;;21.4;19.1;;;;;;;3.1;85.6;99850;;;;
2021/11/03 06:18:37;;;;;;;21.4;19.1;;;;;;;3.2;85.9;99860;;;;
2021/11/03 06:20:37;;;;;;;21.4;19.1;;;;;;;3.3;85.6;99860;;;;
2021/11/03 06:24:38;;;;;;;21.4;19.1;;;;;;;3.2;85.4;99850;;;;
2021/11/03 06:28:37;;;;;;;23.0;20.7;;;;;;;3.4;85.5;99850;;;;
2021/11/03 06:30:37;;;;;;;23.0;20.7;;;;;;;3.3;85.6;99850;;;;
2021/11/03 06:32:37;;;;;;;23.0;20.7;;;;;;;3.2;86.0;99850;;;;
2021/11/03 06:36:37;;;;;;;23.0;20.7;;;;;;;3.3;86.1;99850;;;;
2021/11/03 06:38:37;;;;;;;23.0;20.7;;;;;;;3.2;86.0;99850;;;;
2021/11/03 06:40:37;;;;;;;23.0;20.7;;;;;;;3.3;86.0;99850;;;;
2021/11/03 06:42:37;;;;;;;23.0;20.7;;;;;;;3.2;86.2;99850;;;;
2021/11/03 06:44:37;;;;;;;23.0;20.7;;;;;;;3.3;86.0;99850;;;;
2021/11/03 06:50:38;;;;;;;22.9;20.5;;;;;;;3.4;86.3;99860;;;;
2021/11/03 07:00:37;;;;;;;22.9;20.5;;;;;;;3.5;85.9;99880;;;;
2021/11/03 07:04:37;;;;;;;22.9;20.5;;;;;;;3.4;85.4;99880;;;;
2021/11/03 07:06:37;;;;;;;23.2;20.9;;;;;;;3.5;85.3;99870;;;;
2021/11/03 07:12:37;;;;;;;23.2;20.9;;;;;;;3.6;85.4;99870;;;;
2021/11/03 07:20:37;;;;;;;23.2;20.9;;;;;;;3.5;86.0;99880;;;;
2021/11/03 07:22:37;;;;;;;23.2;20.9;;;;;;;3.6;85.7;99880;;;;
2021/11/03 07:26:37;;;;;;;20.6;18.5;;;;;;;3.7;85.1;99870;;;;
2021/11/03 07:32:37;;;;;;;20.6;18.5;;;;;;;3.6;85.1;99880;;;;
2021/11/03 07:34:37;;;;;;;20.6;18.5;;;;;;;3.7;85.3;99880;;;;
2021/11/03 07:42:37;;;;;;;20.6;18.5;;;;;;;3.8;85.5;99870;;;;
2021/11/03 07:58:37;;;;;;;23.1;20.7;;;;;;;4.0;85.8;99860;;;;
2021/11/03 08:00:37;;;;;;;23.1;20.7;;;;;;;3.9;85.8;99860;;;;
2021/11/03 08:04:37;;;;;;;23.1;20.7;;;;;;;4.0;85.8;99870;;;;
2021/11/03 08:08:38;;;;;;;26.5;22.2;;;;;;;4.1;85.6;99870;;;;
2021/11/03 08:16:37;;;;;;;26.5;22.2;;;;;;;4.2;85.7;99880;;;;
2021/11/03 08:22:37;;;;;;;26.5;22.2;;;;;;;4.3;85.8;99870;;;;
2021/11/03 08:24:37;;;;;;;26.5;22.2;;;;;;;4.2;85.8;99870;;;;
2021/11/03 08:26:37;;;;;;;31.2;24.7;;;;;;;4.3;86.2;99880;;;;
2021/11/03 08:34:37;;;;;;;31.2;24.7;;;;;;;4.4;86.5;99870;;;;
2021/11/03 08:36:37;;;;;;;31.2;24.7;;;;;;;4.3;86.5;99880;;;;
2021/11/03 08:38:37;;;;;;;31.2;24.7;;;;;;;4.4;86.4;99880;;;;
2021/11/03 08:40:37;;;;;;;31.2;24.7;;;;;;;4.5;86.3;99880;;;;
2021/11/03 08:44:40;;;;;;;31.2;24.7;;;;;;;4.6;86.2;99870;;;;
2021/11/03 08:46:38;;;;;;;28.7;25.6;;;;;;;4.7;86.3;99880;;;;
2021/11/03 08:52:37;;;;;;;28.7;25.6;;;;;;;4.8;86.0;99880;;;;
2021/11/03 08:54:49;;;;;;;28.7;25.6;;;;;;;4.7;85.9;99890;;;;
2021/11/03 08:58:37;;;;;;;28.7;25.6;;;;;;;4.8;86.1;99880;;;;
2021/11/03 09:00:38;;;;;;;28.7;25.6;;;;;;;4.9;86.5;99890;;;;
2021/11/03 09:04:37;;;;;;;27.9;25.0;;;;;;;5.0;85.7;99890;;;;
2021/11/03 09:08:38;;;;;;;27.9;25.0;;;;;;;5.1;85.9;99890;;;;
2021/11/03 09:10:37;;;;;;;27.9;25.0;;;;;;;5.2;86.7;99890;;;;
2021/11/03 09:14:37;;;;;;;27.9;25.0;;;;;;;5.3;86.8;99890;;;;
2021/11/03 09:16:37;;;;;;;27.9;25.0;;;;;;;5.5;87.1;99900;;;;
2021/11/03 09:18:37;;;;;;;27.9;25.0;;;;;;;5.6;86.8;99900;;;;
2021/11/03 09:24:37;;;;;;;30.7;27.3;;;;;;;5.8;87.4;99890;;;;
2021/11/03 09:26:37;;;;;;;30.7;27.3;;;;;;;5.7;87.2;99900;;;;
2021/11/03 09:32:38;;;;;;;30.7;27.3;;;;;;;5.8;86.8;99900;;;;
2021/11/03 09:38:37;;;;;;;30.7;27.3;;;;;;;5.9;87.0;99900;;;;
2021/11/03 09:44:37;;;;;;;35.7;31.6;;;;;;;6.0;87.2;99900;;;;
2021/11/03 09:48:37;;;;;;;35.7;31.6;;;;;;;6.1;87.6;99910;;;;
2021/11/03 09:50:37;;;;;;;35.7;31.6;;;;;;;6.2;87.5;99910;;;;
2021/11/03 09:56:37;;;;;;;35.7;31.6;;;;;;;6.3;87.6;99910;;;;
2021/11/03 10:00:39;;;;;;;35.7;31.6;;;;;;;6.4;87.4;99900;;;;
2021/11/03 10:04:37;;;;;;;36.9;33.2;;;;;;;6.5;87.5;99910;;;;
2021/11/03 10:08:37;;;;;;;36.9;33.2;;;;;;;6.6;87.3;99910;;;;
2021/11/03 10:14:37;;;;;;;36.9;33.2;;;;;;;6.7;87.8;99910;;;;
2021/11/03 10:18:37;;;;;;;36.9;33.2;;;;;;;6.8;87.8;99920;;;;
2021/11/03 10:22:38;;;;;;;36.9;33.2;;;;;;;6.6;87.5;99910;;;;
2021/11/03 10:24:38;;;;;;;36.5;32.8;;;;;;;6.7;87.8;99920;;;;
2021/11/03 10:26:37;;;;;;;36.5;32.8;;;;;;;6.6;88.0;99920;;;;
2021/11/03 10:28:40;;;;;;;36.5;32.8;;;;;;;6.7;88.6;99920;;;;
2021/11/03 10:30:37;;;;;;;36.5;32.8;;;;;;;6.8;88.1;99920;;;;
2021/11/03 10:32:38;;;;;;;36.5;32.8;;;;;;;6.9;88.3;99910;;;;
2021/11/03 10:36:37;;;;;;;36.5;32.8;;;;;;;6.8;87.8;99910;;;;
2021/11/03 10:38:37;;;;;;;36.5;32.8;;;;;;;6.9;87.6;99910;;;;
2021/11/03 10:42:37;;;;;;;36.5;32.8;;;;;;;7.0;88.6;99910;;;;
2021/11/03 10:44:37;;;;;;;36.9;33.0;;;;;;;7.1;88.0;99910;;;;
2021/11/03 10:50:39;;;;;;;36.9;33.0;;;;;;;7.2;88.0;99910;;;;
2021/11/03 10:52:37;;;;;;;36.9;33.0;;;;;;;7.3;87.5;99920;;;;
2021/11/03 10:56:37;;;;;;;36.9;33.0;;;;;;;7.2;87.0;99910;;;;
2021/11/03 11:08:37;;;;;;;37.8;33.9;;;;;;;7.3;87.3;99900;;;;
2021/11/03 11:12:37;;;;;;;37.8;33.9;;;;;;;7.4;87.9;99900;;;;
2021/11/03 11:18:38;;;;;;;37.8;33.9;;;;;;;7.5;87.1;99900;;;;
2021/11/03 11:20:37;;;;;;;37.8;33.9;;;;;;;7.4;86.8;99900;;;;
2021/11/03 11:22:37;;;;;;;37.8;33.9;;;;;;;7.5;87.0;99900;;;;
2021/11/03 11:24:37;;;;;;;37.0;33.1;;;;;;;7.6;86.9;99890;;;;
2021/11/03 11:30:37;;;;;;;37.0;33.1;;;;;;;7.7;87.4;99890;;;;
2021/11/03 11:32:37;;;;;;;37.0;33.1;;;;;;;7.8;86.8;99890;;;;
2021/11/03 11:34:37;;;;;;;37.0;33.1;;;;;;;7.9;86.7;99890;;;;
2021/11/03 11:36:37;;;;;;;37.0;33.1;;;;;;;7.8;87.8;99890;;;;
2021/11/03 11:38:37;;;;;;;37.0;33.1;;;;;;;7.9;88.4;99890;;;;
2021/11/03 11:40:39;;;;;;;37.0;33.1;;;;;;;7.8;87.9;99890;;;;
2021/11/03 11:44:37;;;;;;;34.4;30.8;;;;;;;7.9;86.9;99890;;;;
2021/11/03 11:56:37;;;;;;;34.4;30.8;;;;;;;8.0;87.3;99890;;;;
2021/11/03 12:00:38;;;;;;;34.4;30.8;;;;;;;8.1;86.9;99880;;;;
2021/11/03 12:16:37;;;;;;;34.8;31.2;;;;;;;8.0;86.7;99880;;;;
2021/11/03 12:18:37;;;;;;;34.8;31.2;;;;;;;8.1;86.2;99870;;;;
2021/11/03 12:24:37;;;;;;;39.1;34.8;;;;;;;8.2;86.8;99880;;;;
2021/11/03 12:30:37;;;;;;;39.1;34.8;;;;;;;8.4;87.0;99880;;;;
2021/11/03 12:32:37;;;;;;;39.1;34.8;;;;;;;8.3;86.3;99880;;;;
2021/11/03 12:38:37;;;;;;;39.1;34.8;;;;;;;8.4;86.9;99880;;;;
2021/11/03 12:40:37;;;;;;;39.1;34.8;;;;;;;8.3;86.2;99880;;;;
2021/11/03 12:46:37;;;;;;;41.1;36.7;;;;;;;8.4;85.8;99880;;;;
2021/11/03 12:48:37;;;;;;;41.1;36.7;;;;;;;8.3;86.5;99880;;;;
2021/11/03 12:54:37;;;;;;;41.1;36.7;;;;;;;8.4;86.1;99890;;;;
2021/11/03 12:56:37;;;;;;;41.1;36.7;;;;;;;8.3;86.2;99890;;;;
2021/11/03 13:00:37;;;;;;;41.1;36.7;;;;;;;8.2;86.8;99890;;;;
2021/11/03 13:04:37;;;;;;;42.8;38.1;;;;;;;8.3;86.6;99890;;;;
2021/11/03 13:06:37;;;;;;;42.8;38.1;;;;;;;8.4;86.5;99890;;;;
2021/11/03 13:20:37;;;;;;;42.8;38.1;;;;;;;8.3;85.6;99880;;;;
2021/11/03 13:42:40;;;;;;;43.4;38.8;;;;;;;8.4;86.3;99880;;;;
2021/11/03 13:48:37;;;;;;;43.3;38.7;;;;;;;8.3;85.1;99890;;;;
2021/11/03 13:50:37;;;;;;;43.3;38.7;;;;;;;8.4;85.1;99880;;;;
2021/11/03 13:52:37;;;;;;;43.3;38.7;;;;;;;8.3;85.1;99890;;;;
2021/11/03 14:02:38;;;;;;;43.3;38.7;;;;;;;8.2;85.2;99880;;;;
2021/11/03 14:04:37;;;;;;;41.6;36.5;;;;;;;8.3;85.1;99890;;;;
2021/11/03 14:10:37;;;;;;;41.6;36.5;;;;;;;8.4;85.4;99890;;;;
2021/11/03 14:12:37;;;;;;;41.6;36.5;;;;;;;8.3;84.8;99890;;;;
2021/11/03 14:20:38;;;;;;;41.6;36.5;;;;;;;8.2;85.0;99890;;;;
2021/11/03 14:40:37;;;;;;;43.8;37.3;;;;;;;8.1;84.9;99900;;;;
2021/11/03 14:42:39;;;;;;;43.8;37.3;;;;;;;8.2;84.9;99900;;;;
2021/11/03 14:44:37;;;;;;;42.4;37.6;;;;;;;8.3;85.8;99900;;;;
2021/11/03 14:48:37;;;;;;;42.4;37.6;;;;;;;8.2;84.8;99910;;;;
2021/11/03 15:20:37;;;;;;;44.7;36.6;;;;;;;8.1;85.2;99920;;;;
2021/11/03 15:26:37;;;;;;;41.6;35.9;;;;;;;8.2;85.2;99920;;;;
2021/11/03 15:28:37;;;;;;;41.6;35.9;;;;;;;8.1;85.4;99930;;;;
2021/11/03 15:38:37;;;;;;;41.6;35.9;;;;;;;8.0;85.5;99930;;;;
2021/11/03 15:52:37;;;;;;;43.7;36.6;;;;;;;7.9;85.1;99940;;;;
2021/11/03 15:54:37;;;;;;;43.7;36.6;;;;;;;8.0;85.2;99940;;;;
2021/11/03 15:56:39;;;;;;;43.7;36.6;;;;;;;7.9;85.1;99950;;;;
2021/11/03 16:00:37;;;;;;;43.7;36.6;;;;;;;7.8;85.2;99950;;;;
2021/11/03 16:04:37;;;;;;;50.2;41.5;;;;;;;7.9;85.3;99950;;;;
2021/11/03 16:06:37;;;;;;;50.2;41.5;;;;;;;7.8;85.4;99950;;;;
2021/11/03 16:16:37;;;;;;;50.2;41.5;;;;;;;7.7;85.4;99950;;;;
2021/11/03 16:18:37;;;;;;;50.2;41.5;;;;;;;7.8;85.7;99950;;;;
2021/11/03 16:20:37;;;;;;;50.2;41.5;;;;;;;7.7;85.4;99940;;;;
2021/11/03 16:26:40;;;;;;;47.1;39.4;;;;;;;7.6;85.5;99950;;;;
2021/11/03 16:30:37;;;;;;;47.1;39.4;;;;;;;7.7;85.5;99950;;;;
2021/11/03 16:32:37;;;;;;;47.1;39.4;;;;;;;7.6;85.6;99950;;;;
2021/11/03 16:42:37;;;;;;;47.1;39.4;;;;;;;7.5;85.5;99950;;;;
2021/11/03 16:48:37;;;;;;;51.5;42.3;;;;;;;7.4;85.8;99950;;;;
2021/11/03 16:52:37;;;;;;;51.5;42.3;;;;;;;7.5;85.6;99950;;;;
2021/11/03 16:56:37;;;;;;;51.5;42.3;;;;;;;7.4;85.2;99960;;;;
2021/11/03 17:16:38;;;;;;;50.2;42.8;;;;;;;7.5;85.7;99980;;;;
2021/11/03 17:18:37;;;;;;;50.2;42.8;;;;;;;7.4;85.4;99980;;;;
2021/11/03 17:40:37;;;;;;;47.9;39.9;;;;;;;7.3;85.8;100010;;;;
2021/11/03 17:42:37;;;;;;;47.9;39.9;;;;;;;7.4;86.2;100010;;;;
2021/11/03 17:46:37;;;;;;;58.5;44.7;;;;;;;7.3;85.5;100020;;;;
2021/11/03 17:50:37;;;;;;;58.5;44.7;;;;;;;7.4;85.9;100010;;;;
2021/11/03 17:54:38;;;;;;;58.5;44.7;;;;;;;7.3;86.9;100020;;;;
2021/11/03 17:56:37;;;;;;;58.5;44.7;;;;;;;7.4;86.0;100010;;;;
2021/11/03 18:02:38;;;;;;;52.2;43.8;;;;;;;7.5;85.6;100010;;;;
2021/11/03 18:22:37;;;;;;;52.0;44.8;;;;;;;7.6;86.5;100040;;;;
2021/11/03 18:28:37;;;;;;;52.0;44.8;;;;;;;7.5;86.4;100040;;;;
2021/11/03 18:30:37;;;;;;;52.0;44.8;;;;;;;7.6;86.4;100050;;;;
2021/11/03 18:42:39;;;;;;;57.5;42.9;;;;;;;7.7;86.2;100060;;;;
2021/11/03 18:44:37;;;;;;;57.5;42.9;;;;;;;7.6;86.3;100060;;;;
2021/11/03 18:52:37;;;;;;;57.5;42.9;;;;;;;7.7;85.8;100060;;;;
2021/11/03 19:00:47;;;;;;;57.5;42.9;;;;;;;7.6;85.6;100060;;;;
2021/11/03 19:06:37;;;;;;;52.6;43.8;;;;;;;7.5;86.0;100060;;;;
2021/11/03 19:12:37;;;;;;;52.6;43.8;;;;;;;7.4;85.6;100060;;;;
2021/11/03 19:16:37;;;;;;;52.6;43.8;;;;;;;7.3;85.6;100060;;;;
2021/11/03 19:22:39;;;;;;;57.6;44.2;;;;;;;7.4;85.3;100070;;;;
2021/11/03 19:24:38;;;;;;;57.6;44.2;;;;;;;7.3;85.5;100070;;;;
2021/11/03 19:28:37;;;;;;;57.6;44.2;;;;;;;7.4;85.4;100060;;;;
2021/11/03 19:48:37;;;;;;;64.1;45.3;;;;;;;7.5;85.4;100080;;;;
2021/11/03 19:52:37;;;;;;;64.1;45.3;;;;;;;7.6;85.6;100080;;;;
2021/11/03 20:00:38;;;;;;;64.1;45.3;;;;;;;7.5;85.3;100080;;;;
2021/11/03 20:08:37;;;;;;;62.2;44.8;;;;;;;7.4;84.8;100070;;;;
2021/11/03 20:14:39;;;;;;;62.2;44.8;;;;;;;7.5;85.6;100070;;;;
2021/11/03 20:16:37;;;;;;;62.2;44.8;;;;;;;7.4;85.0;100070;;;;
2021/11/03 20:20:37;;;;;;;62.2;44.8;;;;;;;7.3;85.5;100080;;;;
2021/11/03 20:22:37;;;;;;;70.0;47.4;;;;;;;7.4;85.3;100080;;;;
2021/11/03 20:28:37;;;;;;;70.0;47.4;;;;;;;7.3;85.4;100090;;;;
2021/11/03 20:30:37;;;;;;;70.0;47.4;;;;;;;7.4;85.4;100090;;;;
2021/11/03 20:46:37;;;;;;;60.8;44.3;;;;;;;7.5;86.0;100090;;;;
2021/11/03 20:48:37;;;;;;;60.8;44.3;;;;;;;7.4;85.7;100100;;;;
2021/11/03 20:54:37;;;;;;;60.8;44.3;;;;;;;7.5;85.6;100090;;;;
2021/11/03 20:56:37;;;;;;;60.8;44.3;;;;;;;7.4;85.5;100090;;;;
2021/11/03 21:02:41;;;;;;;63.4;44.2;;;;;;;7.5;85.4;100090;;;;
2021/11/03 21:08:37;;;;;;;63.4;44.2;;;;;;;7.4;85.0;100110;;;;
2021/11/03 21:20:37;;;;;;;63.4;44.2;;;;;;;7.5;85.9;100120;;;;
2021/11/03 21:28:37;;;;;;;67.5;46.4;;;;;;;7.4;85.4;100110;;;;
2021/11/03 21:44:37;;;;;;;72.3;47.9;;;;;;;7.5;85.3;100130;;;;
2021/11/03 21:54:37;;;;;;;72.3;47.9;;;;;;;7.4;84.7;100140;;;;
2021/11/03 21:56:37;;;;;;;72.3;47.9;;;;;;;7.5;84.8;100140;;;;
2021/11/03 21:58:37;;;;;;;72.3;47.9;;;;;;;7.4;85.2;100130;;;;
2021/11/03 22:00:38;;;;;;;72.3;47.9;;;;;;;7.5;85.2;100130;;;;
2021/11/03 22:06:37;;;;;;;70.8;47.3;;;;;;;7.4;85.3;100140;;;;
2021/11/03 22:10:38;;;;;;;70.8;47.3;;;;;;;7.5;85.0;100140;;;;
2021/11/03 22:14:37;;;;;;;70.8;47.3;;;;;;;7.4;85.1;100140;;;;
2021/11/03 22:16:37;;;;;;;70.8;47.3;;;;;;;7.5;84.9;100140;;;;
2021/11/03 22:20:37;;;;;;;70.8;47.3;;;;;;;7.4;84.8;100140;;;;
2021/11/03 22:24:37;;;;;;;80.8;49.7;;;;;;;7.3;84.7;100140;;;;
2021/11/03 22:28:37;;;;;;;80.8;49.7;;;;;;;7.4;84.8;100140;;;;
2021/11/03 22:44:37;;;;;;;67.9;42.7;;;;;;;7.3;84.7;100150;;;;
2021/11/03 22:46:37;;;;;;;67.9;42.7;;;;;;;7.4;84.8;100150;;;;
2021/11/03 22:50:37;;;;;;;67.9;42.7;;;;;;;7.3;84.8;100150;;;;
2021/11/03 22:54:37;;;;;;;67.9;42.7;;;;;;;7.4;85.0;100150;;;;
2021/11/03 22:56:37;;;;;;;67.9;42.7;;;;;;;7.3;84.9;100150;;;;
2021/11/03 22:58:37;;;;;;;67.9;42.7;;;;;;;7.4;84.8;100160;;;;
2021/11/03 23:02:37;;;;;;;82.9;42.6;;;;;;;7.3;84.6;100160;;;;
2021/11/03 23:32:37;;;;;;;63.9;41.8;;;;;;;7.4;84.4;100170;;;;
2021/11/03 23:34:37;;;;;;;63.9;41.8;;;;;;;7.3;84.3;100170;;;;
2021/11/03 23:38:37;;;;;;;63.9;41.8;;;;;;;7.4;84.3;100170;;;;
2021/11/03 23:40:37;;;;;;;63.9;41.8;;;;;;;7.3;84.1;100170;;;;
2021/11/03 23:42:37;;;;;;;64.2;41.5;;;;;;;7.4;84.4;100170;;;;
2021/11/03 23:50:37;;;;;;;64.2;41.5;;;;;;;7.3;84.7;100160;;;;
2021/11/03 23:54:37;;;;;;;64.2;41.5;;;;;;;7.2;84.7;100170;;;;
2021/11/03 23:56:37;;;;;;;64.2;41.5;;;;;;;7.3;84.3;100170;;;;
